Time;durP1;ratioP1;P1;durP2;ratioP2;P2;SDS_P1;SDS_P2;PMS_P1;PMS_P2;Temp;Humidity;BMP_temperature;BMP_pressure;BME280_temperature;BME280_humidity;BME280_pressure;Samples;Min_cycle;Max_cycle;Signal;HPM_P1;HPM_P2
2023/05/28 00:01:27;;;;;;;;;;;;;;;20.49;39.52;102091.09;7352744;19;19922;-59
2023/05/28 00:03:52;;;;;;;;;;;;;;;20.47;39.52;102088.50;7352164;19;20010;-59
2023/05/28 00:06:17;;;;;;;;;;;;;;;20.44;39.27;102089.47;7352472;19;19919;-59
2023/05/28 00:08:42;;;;;;;;;;;;;;;20.44;39.77;102092.13;7352860;19;19950;-59
2023/05/28 00:11:08;;;;;;;;;;;;;;;20.17;40.01;102050.81;7356697;19;19930;-60
2023/05/28 00:13:33;;;;;;;;;;;;;;;20.42;39.54;102083.34;7352232;19;19990;-59
2023/05/28 00:15:58;;;;;;;;;;;;;;;20.41;39.66;102075.47;7353128;19;19927;-60
2023/05/28 00:18:23;;;;;;;;;;;;;;;20.39;39.81;102079.97;7354715;19;20475;-60
2023/05/28 00:20:49;;;;;;;;;;;;;;;20.38;39.98;102087.09;7358019;19;19915;-59
2023/05/28 00:23:16;;;;;;;;;;;;;;;20.35;39.79;102084.53;7352546;19;19919;-59
2023/05/28 00:25:41;;;;;;;;;;;;;;;20.32;39.75;102083.78;7354422;19;19922;-58
2023/05/28 00:28:06;;;;;;;;;;;;;;;20.30;40.19;102089.19;7354206;19;19947;-59
2023/05/28 00:30:32;;;;;;;;;;;;;;;19.95;40.00;102034.91;7356678;19;19919;-59
2023/05/28 00:32:57;;;;;;;;;;;;;;;20.24;40.01;102084.13;7354896;19;20054;-59
2023/05/28 00:35:22;;;;;;;;;;;;;;;20.22;40.25;102088.63;7352730;19;19910;-59
2023/05/28 00:37:47;;;;;;;;;;;;;;;20.19;39.94;102076.34;7356298;19;19915;-60
2023/05/28 00:40:16;;;;;;;;;;;;;;;20.18;40.36;102089.69;7353268;19;19919;-58
2023/05/28 00:42:41;;;;;;;;;;;;;;;20.16;40.40;102096.81;7356593;19;19946;-59
2023/05/28 00:45:07;;;;;;;;;;;;;;;20.14;40.11;102093.38;7351970;19;19922;-59
2023/05/28 00:47:32;;;;;;;;;;;;;;;20.10;39.91;102083.81;7353982;19;20371;-59
2023/05/28 00:50:00;;;;;;;;;;;;;;;20.08;40.05;102088.34;7349385;19;19919;-58
2023/05/28 00:52:26;;;;;;;;;;;;;;;20.05;40.28;102083.16;7354471;19;19919;-59
2023/05/28 00:54:51;;;;;;;;;;;;;;;20.03;39.91;102082.34;7353653;19;20726;-59
2023/05/28 00:57:21;;;;;;;;;;;;;;;19.99;40.72;102083.41;7354632;19;19919;-59
2023/05/28 00:59:46;;;;;;;;;;;;;;;19.94;40.41;102080.94;7353071;19;19919;-59
2023/05/28 01:02:12;;;;;;;;;;;;;;;19.90;40.39;102090.78;7350767;19;19918;-60
2023/05/28 01:04:37;;;;;;;;;;;;;;;19.86;40.70;102075.91;7354923;19;19944;-60
2023/05/28 01:07:02;;;;;;;;;;;;;;;19.83;40.31;102084.00;7348813;19;19930;-58
2023/05/28 01:09:28;;;;;;;;;;;;;;;19.79;40.69;102081.53;7349152;19;19939;-58
2023/05/28 01:11:54;;;;;;;;;;;;;;;19.76;40.67;102082.50;7354549;19;19923;-59
2023/05/28 01:14:19;;;;;;;;;;;;;;;19.74;40.65;102088.81;7358908;19;20440;-59
2023/05/28 01:16:48;;;;;;;;;;;;;;;19.68;41.16;102089.91;7361617;19;19927;-59
2023/05/28 01:19:16;;;;;;;;;;;;;;;19.67;40.89;102090.84;7353188;19;19919;-60
2023/05/28 01:21:43;;;;;;;;;;;;;;;19.63;40.78;102084.78;7360958;19;19959;-59
2023/05/28 01:24:09;;;;;;;;;;;;;;;19.62;40.71;102090.16;7355666;19;19926;-59
2023/05/28 01:26:35;;;;;;;;;;;;;;;19.59;40.95;102092.88;7358955;19;22151;-59
2023/05/28 01:29:00;;;;;;;;;;;;;;;19.57;41.27;102085.00;7357977;19;20002;-59
2023/05/28 01:31:26;;;;;;;;;;;;;;;19.55;41.18;102085.97;7356564;19;19952;-59
2023/05/28 01:33:51;;;;;;;;;;;;;;;19.54;41.08;102092.19;7360429;19;19953;-59
2023/05/28 01:36:26;;;;;;;;;;;;;;;19.52;41.12;102086.94;7360602;19;19929;-59
2023/05/28 01:38:52;;;;;;;;;;;;;;;19.50;41.38;102091.44;7357616;19;19919;-59
2023/05/28 01:41:18;;;;;;;;;;;;;;;19.16;41.42;102034.44;7360565;19;19935;-59
2023/05/28 01:43:44;;;;;;;;;;;;;;;19.45;41.38;102088.94;7355883;19;19926;-59
2023/05/28 01:46:10;;;;;;;;;;;;;;;19.44;41.22;102086.38;7356834;19;19921;-59
2023/05/28 01:48:36;;;;;;;;;;;;;;;19.42;41.27;102088.22;7358802;19;19930;-59
2023/05/28 01:51:01;;;;;;;;;;;;;;;19.39;41.19;102093.63;7358850;19;21407;-59
2023/05/28 01:53:27;;;;;;;;;;;;;;;19.37;41.57;102091.03;7358692;19;19919;-60
2023/05/28 01:55:55;;;;;;;;;;;;;;;19.34;41.41;102093.78;7359095;19;19927;-59
2023/05/28 01:58:21;;;;;;;;;;;;;;;19.32;41.29;102089.47;7347987;19;19919;-59
2023/05/28 02:00:52;;;;;;;;;;;;;;;19.29;41.36;102086.94;7357203;19;19963;-59
2023/05/28 02:03:17;;;;;;;;;;;;;;;19.26;41.38;102082.63;7356222;19;20002;-59
2023/05/28 02:05:42;;;;;;;;;;;;;;;19.22;41.53;102088.97;7355781;19;20463;-59
2023/05/28 02:08:07;;;;;;;;;;;;;;;19.20;41.55;102088.13;7355726;19;19922;-59
2023/05/28 02:10:33;;;;;;;;;;;;;;;19.17;41.40;102088.25;7350030;19;19938;-60
2023/05/28 02:13:00;;;;;;;;;;;;;;;19.15;41.48;102090.09;7353255;19;19939;-59
2023/05/28 02:15:25;;;;;;;;;;;;;;;19.13;41.40;102086.63;7355032;19;19926;-59
2023/05/28 02:17:51;;;;;;;;;;;;;;;19.09;41.46;102090.31;7356511;19;19911;-60
2023/05/28 02:20:17;;;;;;;;;;;;;;;19.06;41.69;102091.31;7350267;19;19929;-59
2023/05/28 02:22:43;;;;;;;;;;;;;;;19.04;41.46;102098.41;7354948;19;19923;-59
2023/05/28 02:25:08;;;;;;;;;;;;;;;19.00;41.76;102096.78;7349191;19;19934;-59
2023/05/28 02:27:35;;;;;;;;;;;;;;;18.99;41.75;102094.22;7342265;19;19933;-59
2023/05/28 02:30:00;;;;;;;;;;;;;;;18.93;41.42;102096.16;7353208;19;20572;-59
2023/05/28 02:32:26;;;;;;;;;;;;;;;18.91;41.25;102100.66;7354976;19;19978;-59
2023/05/28 02:34:54;;;;;;;;;;;;;;;18.88;41.80;102103.38;7356475;19;19911;-59
2023/05/28 02:37:21;;;;;;;;;;;;;;;18.85;41.73;102092.91;7355546;19;19931;-59
2023/05/28 02:39:46;;;;;;;;;;;;;;;18.82;41.75;102098.31;7348854;19;21036;-57
2023/05/28 02:42:11;;;;;;;;;;;;;;;18.80;42.03;102096.63;7351098;19;19926;-59
2023/05/28 02:44:37;;;;;;;;;;;;;;;18.77;41.75;102100.25;7355738;19;19965;-60
2023/05/28 02:47:02;;;;;;;;;;;;;;;18.74;41.93;102110.09;7355678;19;19931;-59
2023/05/28 02:49:27;;;;;;;;;;;;;;;18.70;42.32;102098.72;7352855;19;19926;-59
2023/05/28 02:51:52;;;;;;;;;;;;;;;18.67;41.90;102098.81;7357453;19;19915;-59
2023/05/28 02:54:18;;;;;;;;;;;;;;;18.63;42.28;102091.91;7354930;19;20344;-59
2023/05/28 02:56:43;;;;;;;;;;;;;;;18.60;42.21;102097.28;7355359;19;19932;-58
2023/05/28 02:59:08;;;;;;;;;;;;;;;18.57;42.21;102102.69;7346414;19;19923;-59
2023/05/28 03:01:33;;;;;;;;;;;;;;;18.54;42.22;102102.78;7357571;19;20048;-59
2023/05/28 03:03:59;;;;;;;;;;;;;;;18.51;42.57;102097.63;7332121;19;19931;-59
2023/05/28 03:06:24;;;;;;;;;;;;;;;18.48;42.66;102108.28;7358933;19;20601;-59
2023/05/28 03:08:49;;;;;;;;;;;;;;;18.47;42.65;102103.91;7354618;19;19915;-59
2023/05/28 03:11:14;;;;;;;;;;;;;;;18.45;42.19;102111.03;7356395;19;20822;-59
2023/05/28 03:13:40;;;;;;;;;;;;;;;18.42;42.35;102114.66;7355330;19;19923;-59
2023/05/28 03:16:05;;;;;;;;;;;;;;;18.40;42.16;102117.34;7355630;19;19918;-59
2023/05/28 03:18:31;;;;;;;;;;;;;;;18.38;42.13;102113.88;7354892;19;19926;-59
2023/05/28 03:20:56;;;;;;;;;;;;;;;18.36;42.32;102115.72;7336875;19;20036;-59
2023/05/28 03:23:21;;;;;;;;;;;;;;;18.32;42.05;102111.44;7351084;19;19930;-58
2023/05/28 03:25:46;;;;;;;;;;;;;;;18.29;42.07;102114.16;7357562;19;19922;-58
2023/05/28 03:28:12;;;;;;;;;;;;;;;18.27;42.03;102110.72;7358434;19;19977;-59
2023/05/28 03:30:37;;;;;;;;;;;;;;;18.26;42.21;102111.63;7352841;19;20486;-59
2023/05/28 03:33:02;;;;;;;;;;;;;;;18.23;41.97;102111.72;7358071;19;19953;-59
2023/05/28 03:35:28;;;;;;;;;;;;;;;18.20;42.00;102103.91;7354498;19;20386;-59
2023/05/28 03:37:53;;;;;;;;;;;;;;;18.18;41.82;102111.00;7356529;19;19921;-59
2023/05/28 03:40:18;;;;;;;;;;;;;;;18.15;41.58;102112.00;7353474;19;19927;-59
2023/05/28 03:42:44;;;;;;;;;;;;;;;18.13;41.57;102113.78;7356187;19;20615;-59
2023/05/28 03:45:09;;;;;;;;;;;;;;;18.10;41.57;102113.06;7356658;19;20027;-58
2023/05/28 03:47:35;;;;;;;;;;;;;;;18.07;41.83;102121.06;7350529;19;20199;-59
2023/05/28 03:50:01;;;;;;;;;;;;;;;18.05;41.48;102122.91;7355299;19;20446;-59
2023/05/28 03:52:27;;;;;;;;;;;;;;;18.01;41.55;102124.75;7355200;19;19915;-58
2023/05/28 03:54:52;;;;;;;;;;;;;;;17.98;41.79;102132.78;7356110;19;19934;-58
2023/05/28 03:57:17;;;;;;;;;;;;;;;17.96;41.38;102136.41;7350767;19;20378;-59
2023/05/28 03:59:42;;;;;;;;;;;;;;;17.94;40.95;102143.50;7355952;19;19933;-59
2023/05/28 04:02:08;;;;;;;;;;;;;;;17.91;41.22;102139.19;7355960;19;20571;-59
2023/05/28 04:04:33;;;;;;;;;;;;;;;17.87;41.66;102143.69;7355892;19;19927;-59
2023/05/28 04:06:58;;;;;;;;;;;;;;;17.85;41.75;102139.38;7353283;19;20088;-59
2023/05/28 04:09:24;;;;;;;;;;;;;;;17.82;41.48;102144.72;7356367;19;20614;-59
2023/05/28 04:11:49;;;;;;;;;;;;;;;17.80;41.49;102142.16;7354231;19;19942;-58
2023/05/28 04:14:15;;;;;;;;;;;;;;;17.78;41.55;102133.38;7356268;19;20336;-59
2023/05/28 04:16:40;;;;;;;;;;;;;;;17.76;41.66;102135.22;7360330;19;20407;-59
2023/05/28 04:19:05;;;;;;;;;;;;;;;17.74;41.80;102134.41;7348545;19;19926;-59
2023/05/28 04:21:31;;;;;;;;;;;;;;;17.73;41.66;102135.28;7355046;19;20372;-59
2023/05/28 04:23:57;;;;;;;;;;;;;;;17.71;41.56;102138.88;7352416;19;20375;-59
2023/05/28 04:26:22;;;;;;;;;;;;;;;17.69;41.68;102128.38;7354203;19;20846;-58
2023/05/28 04:28:48;;;;;;;;;;;;;;;17.66;41.28;102128.44;7356294;19;19919;-59
2023/05/28 04:31:13;;;;;;;;;;;;;;;17.65;41.43;102137.28;7351347;19;19939;-57
2023/05/28 04:33:38;;;;;;;;;;;;;;;17.62;41.68;102132.06;7355109;19;19923;-59
2023/05/28 04:36:04;;;;;;;;;;;;;;;17.61;41.47;102140.91;7351170;19;19935;-59
2023/05/28 04:38:31;;;;;;;;;;;;;;;17.60;41.82;102139.19;7355560;19;19930;-59
2023/05/28 04:40:57;;;;;;;;;;;;;;;17.59;41.78;102142.75;7351301;19;19931;-58
2023/05/28 04:43:23;;;;;;;;;;;;;;;17.59;41.63;102155.97;7353924;19;19945;-59
2023/05/28 04:45:48;;;;;;;;;;;;;;;17.56;41.57;102153.38;7353025;19;20446;-58
2023/05/28 04:48:13;;;;;;;;;;;;;;;17.56;41.69;102156.03;7359779;19;19919;-59
2023/05/28 04:50:40;;;;;;;;;;;;;;;17.52;41.51;102155.25;7357562;19;19935;-59
2023/05/28 04:53:05;;;;;;;;;;;;;;;17.53;41.25;102164.03;7358995;19;19919;-59
2023/05/28 04:55:30;;;;;;;;;;;;;;;17.50;41.54;102161.50;7362311;19;19911;-59
2023/05/28 04:57:56;;;;;;;;;;;;;;;17.48;41.33;102160.66;7360033;19;19941;-59
2023/05/28 05:00:21;;;;;;;;;;;;;;;17.46;41.34;102167.75;7358152;19;19950;-59
2023/05/28 05:02:47;;;;;;;;;;;;;;;17.43;41.22;102171.34;7359690;19;19927;-59
2023/05/28 05:05:14;;;;;;;;;;;;;;;17.42;41.29;102168.75;7361973;19;19947;-59
2023/05/28 05:07:39;;;;;;;;;;;;;;;17.40;41.64;102173.22;7358322;19;20476;-59
2023/05/28 05:10:08;;;;;;;;;;;;;;;17.36;41.47;102181.22;7357148;19;19919;-59
2023/05/28 05:12:33;;;;;;;;;;;;;;;17.35;41.33;102181.28;7361317;19;19927;-59
2023/05/28 05:14:58;;;;;;;;;;;;;;;17.33;41.22;102178.66;7360807;19;20000;-59
2023/05/28 05:17:24;;;;;;;;;;;;;;;17.32;41.46;102192.75;7361440;19;19945;-59
2023/05/28 05:19:49;;;;;;;;;;;;;;;17.31;41.56;102191.03;7358464;19;19969;-59
2023/05/28 05:22:15;;;;;;;;;;;;;;;17.30;41.39;102193.72;7357250;19;19990;-59
2023/05/28 05:24:40;;;;;;;;;;;;;;;17.29;41.63;102199.94;7357692;19;19964;-59
2023/05/28 05:27:06;;;;;;;;;;;;;;;17.29;41.70;102199.94;7359995;19;19927;-59
2023/05/28 05:29:31;;;;;;;;;;;;;;;17.28;41.26;102195.53;7357292;19;19925;-59
2023/05/28 05:31:57;;;;;;;;;;;;;;;17.27;41.61;102197.31;7362041;19;19954;-59
2023/05/28 05:34:23;;;;;;;;;;;;;;;17.27;41.50;102194.66;7354912;19;19925;-58
2023/05/28 05:36:48;;;;;;;;;;;;;;;17.28;41.70;102196.38;7360340;19;19975;-58
2023/05/28 05:39:14;;;;;;;;;;;;;;;17.28;41.29;102196.38;7358479;19;19934;-59
2023/05/28 05:41:39;;;;;;;;;;;;;;;17.29;41.60;102187.59;7361538;19;19918;-58
2023/05/28 05:44:05;;;;;;;;;;;;;;;17.30;41.37;102185.81;7355286;19;19919;-58
2023/05/28 05:46:30;;;;;;;;;;;;;;;17.30;41.73;102197.25;7359661;19;19927;-58
2023/05/28 05:48:55;;;;;;;;;;;;;;;17.32;41.27;102192.75;7358038;19;19932;-59
2023/05/28 05:51:20;;;;;;;;;;;;;;;17.34;41.26;102204.19;7359969;19;19927;-59
2023/05/28 05:53:46;;;;;;;;;;;;;;;17.35;41.26;102191.84;7359863;19;19926;-59
2023/05/28 05:56:11;;;;;;;;;;;;;;;17.37;41.38;102190.88;7355631;19;19998;-59
2023/05/28 05:58:37;;;;;;;;;;;;;;;17.38;41.32;102192.59;7346779;19;19915;-59
2023/05/28 06:01:02;;;;;;;;;;;;;;;17.40;41.33;102194.34;7358797;19;19923;-59
2023/05/28 06:03:28;;;;;;;;;;;;;;;17.42;41.29;102189.88;7355606;19;19915;-59
2023/05/28 06:05:53;;;;;;;;;;;;;;;17.43;41.55;102191.59;7351673;19;20089;-59
2023/05/28 06:08:19;;;;;;;;;;;;;;;17.44;41.21;102190.72;7353995;19;20265;-59
2023/05/28 06:10:44;;;;;;;;;;;;;;;17.46;41.12;102189.75;7351532;19;20009;-59
2023/05/28 06:13:10;;;;;;;;;;;;;;;17.46;41.29;102194.19;7353466;19;20722;-59
2023/05/28 06:15:36;;;;;;;;;;;;;;;17.45;41.06;102193.31;7356922;19;19939;-59
2023/05/28 06:18:02;;;;;;;;;;;;;;;17.45;41.25;102195.09;7348788;19;19927;-59
2023/05/28 06:20:28;;;;;;;;;;;;;;;17.45;41.25;102198.59;7354545;19;19922;-59
2023/05/28 06:22:53;;;;;;;;;;;;;;;17.44;41.00;102193.38;7351186;19;19921;-59
2023/05/28 06:25:21;;;;;;;;;;;;;;;17.43;41.28;102194.25;7357530;19;19991;-58
2023/05/28 06:27:46;;;;;;;;;;;;;;;17.44;41.00;102196.00;7348833;19;19922;-59
2023/05/28 06:30:11;;;;;;;;;;;;;;;17.44;40.95;102193.38;7356680;19;19951;-58
2023/05/28 06:32:37;;;;;;;;;;;;;;;17.43;41.45;102197.75;7348536;19;19923;-59
2023/05/28 06:35:02;;;;;;;;;;;;;;;17.44;41.13;102196.00;7354335;19;19955;-59
2023/05/28 06:37:27;;;;;;;;;;;;;;;17.46;41.00;102202.09;7356145;19;19919;-59
2023/05/28 06:39:53;;;;;;;;;;;;;;;17.46;41.35;102205.59;7354716;19;19923;-59
2023/05/28 06:42:18;;;;;;;;;;;;;;;17.48;40.84;102218.75;7353283;19;21287;-58
2023/05/28 06:44:43;;;;;;;;;;;;;;;17.49;40.87;102212.59;7357134;19;19940;-60
2023/05/28 06:47:09;;;;;;;;;;;;;;;17.50;41.10;102211.69;7351484;19;19935;-59
2023/05/28 06:49:34;;;;;;;;;;;;;;;17.53;40.86;102208.94;7354770;19;20313;-59
2023/05/28 06:51:59;;;;;;;;;;;;;;;17.55;40.94;102212.41;7352504;19;19922;-59
2023/05/28 06:54:25;;;;;;;;;;;;;;;17.57;41.00;102215.88;7353977;19;19930;-59
2023/05/28 06:56:50;;;;;;;;;;;;;;;17.58;41.05;102212.31;7354672;19;19919;-59
2023/05/28 06:59:15;;;;;;;;;;;;;;;17.60;40.63;102216.66;7352306;19;19970;-59
2023/05/28 07:01:41;;;;;;;;;;;;;;;17.62;40.98;102211.31;7356560;19;19923;-59
2023/05/28 07:04:06;;;;;;;;;;;;;;;17.63;40.82;102213.06;7351740;19;19926;-58
2023/05/28 07:06:32;;;;;;;;;;;;;;;17.66;40.43;102207.69;7355250;19;19926;-59
2023/05/28 07:08:57;;;;;;;;;;;;;;;17.67;40.47;102214.72;7352730;19;19923;-59
2023/05/28 07:11:23;;;;;;;;;;;;;;;17.69;40.22;102223.47;7334373;19;19922;-59
2023/05/28 07:13:48;;;;;;;;;;;;;;;17.68;40.73;102219.06;7356860;19;19931;-57
2023/05/28 07:16:13;;;;;;;;;;;;;;;17.68;40.56;102218.22;7348614;19;19919;-59
2023/05/28 07:18:39;;;;;;;;;;;;;;;17.69;40.65;102215.53;7353073;19;22112;-59
2023/05/28 07:21:05;;;;;;;;;;;;;;;17.69;40.73;102223.47;7353124;19;19935;-59
2023/05/28 07:23:30;;;;;;;;;;;;;;;17.71;40.59;102226.94;7351922;19;19911;-59
2023/05/28 07:25:56;;;;;;;;;;;;;;;17.49;40.60;102179.13;7350425;19;19927;-59
2023/05/28 07:28:21;;;;;;;;;;;;;;;17.81;40.69;102236.34;7353779;19;19938;-59
2023/05/28 07:30:46;;;;;;;;;;;;;;;17.86;40.47;102228.31;7354564;19;19925;-59
2023/05/28 07:33:12;;;;;;;;;;;;;;;17.93;40.84;102226.34;7351547;19;19910;-59
2023/05/28 07:35:37;;;;;;;;;;;;;;;17.98;40.85;102225.28;7353092;19;21531;-59
2023/05/28 07:38:02;;;;;;;;;;;;;;;18.04;40.57;102225.09;7351464;19;19927;-59
2023/05/28 07:40:27;;;;;;;;;;;;;;;18.10;40.37;102224.09;7350815;19;19926;-59
2023/05/28 07:42:53;;;;;;;;;;;;;;;18.14;40.60;102226.56;7353580;19;19915;-59
2023/05/28 07:45:18;;;;;;;;;;;;;;;18.18;40.50;102227.34;7355161;19;19930;-57
2023/05/28 07:47:43;;;;;;;;;;;;;;;18.22;40.62;102226.34;7350244;19;20364;-59
2023/05/28 07:50:10;;;;;;;;;;;;;;;18.29;40.43;102227.03;7352633;19;19935;-59
2023/05/28 07:52:35;;;;;;;;;;;;;;;18.34;40.72;102231.25;7354591;19;19919;-58
2023/05/28 07:55:01;;;;;;;;;;;;;;;18.40;40.60;102236.38;7356155;19;19947;-59
2023/05/28 07:57:26;;;;;;;;;;;;;;;18.48;40.54;102243.19;7352997;19;20381;-59
2023/05/28 07:59:52;;;;;;;;;;;;;;;18.54;40.15;102243.84;7354477;19;19926;-59
2023/05/28 08:02:17;;;;;;;;;;;;;;;18.59;40.30;102239.28;7353065;19;19919;-58
2023/05/28 08:04:42;;;;;;;;;;;;;;;18.66;40.17;102239.97;7354516;19;19929;-59
2023/05/28 08:07:09;;;;;;;;;;;;;;;18.71;40.22;102238.09;7356424;19;19921;-59
2023/05/28 08:09:35;;;;;;;;;;;;;;;18.77;40.19;102243.19;7354164;19;19926;-56
2023/05/28 08:12:01;;;;;;;;;;;;;;;18.83;40.34;102242.97;7353884;19;19935;-56
2023/05/28 08:14:27;;;;;;;;;;;;;;;18.89;40.07;102242.75;7354049;19;19950;-56
2023/05/28 08:16:52;;;;;;;;;;;;;;;18.95;40.31;102240.81;7353027;19;20718;-56
2023/05/28 08:19:17;;;;;;;;;;;;;;;19.01;39.92;102240.63;7353321;19;19968;-56
2023/05/28 08:21:42;;;;;;;;;;;;;;;19.06;40.24;102243.97;7351336;19;20196;-56
2023/05/28 08:24:10;;;;;;;;;;;;;;;18.91;40.30;102203.88;7349395;19;20332;-56
2023/05/28 08:26:35;;;;;;;;;;;;;;;19.21;39.83;102240.84;7353573;19;20285;-56
2023/05/28 08:29:00;;;;;;;;;;;;;;;19.28;39.81;102244.13;7352453;19;19923;-56
2023/05/28 08:31:26;;;;;;;;;;;;;;;19.32;40.01;102246.63;7349903;19;19964;-56
2023/05/28 08:33:51;;;;;;;;;;;;;;;19.36;39.73;102239.41;7351820;19;19934;-57
2023/05/28 08:36:16;;;;;;;;;;;;;;;19.40;39.69;102241.91;7345402;19;19994;-56
2023/05/28 08:38:42;;;;;;;;;;;;;;;19.44;39.60;102246.19;7353245;19;20525;-56
2023/05/28 08:41:07;;;;;;;;;;;;;;;19.52;39.74;102247.72;7354755;19;19927;-56
2023/05/28 08:43:32;;;;;;;;;;;;;;;19.59;39.87;102246.56;7353077;19;19922;-57
2023/05/28 08:45:58;;;;;;;;;;;;;;;19.64;39.84;102242.88;7355467;19;19938;-56
2023/05/28 08:48:23;;;;;;;;;;;;;;;19.68;39.63;102255.09;7351991;19;19919;-55
2023/05/28 08:50:50;;;;;;;;;;;;;;;19.75;39.27;102244.25;7353198;19;19918;-56
2023/05/28 08:53:17;;;;;;;;;;;;;;;19.79;39.06;102252.03;7351229;19;20329;-56
2023/05/28 08:55:43;;;;;;;;;;;;;;;19.80;39.19;102243.16;7352820;19;19952;-55
2023/05/28 08:58:09;;;;;;;;;;;;;;;19.80;39.18;102252.91;7354465;19;19944;-56
2023/05/28 09:00:36;;;;;;;;;;;;;;;19.81;39.01;102250.19;7350318;19;19931;-56
2023/05/28 09:03:07;;;;;;;;;;;;;;;19.82;39.46;102249.28;7355035;19;19933;-56
2023/05/28 09:05:32;;;;;;;;;;;;;;;19.86;39.40;102234.97;7349530;19;19980;-56
2023/05/28 09:07:58;;;;;;;;;;;;;;;19.92;39.12;102241.84;7339912;19;20451;-56
2023/05/28 09:10:23;;;;;;;;;;;;;;;20.02;39.33;102247.66;7350493;19;19915;-56
2023/05/28 09:12:58;;;;;;;;;;;;;;;20.10;39.38;102245.59;7318541;19;19925;-56
2023/05/28 09:15:24;;;;;;;;;;;;;;;20.19;39.09;102246.13;7339606;19;19919;-56
2023/05/28 09:17:49;;;;;;;;;;;;;;;20.30;39.45;102236.88;7339283;19;20596;-56
2023/05/28 09:20:15;;;;;;;;;;;;;;;20.40;38.86;102246.22;7339491;19;19919;-56
2023/05/28 09:22:40;;;;;;;;;;;;;;;20.47;38.96;102245.91;7340759;19;19927;-56
2023/05/28 09:25:09;;;;;;;;;;;;;;;20.58;38.99;102249.94;7339037;19;20514;-56
2023/05/28 09:27:35;;;;;;;;;;;;;;;20.69;38.83;102243.28;7339115;19;19939;-56
2023/05/28 09:30:07;;;;;;;;;;;;;;;20.80;38.88;102253.47;7338424;19;19919;-56
2023/05/28 09:32:35;;;;;;;;;;;;;;;20.93;38.66;102246.75;7338156;19;19939;-57
2023/05/28 09:35:00;;;;;;;;;;;;;;;21.06;38.99;102249.72;7345692;19;19911;-56
2023/05/28 09:37:27;;;;;;;;;;;;;;;21.20;38.89;102249.16;7346437;19;19979;-56
2023/05/28 09:39:59;;;;;;;;;;;;;;;21.34;38.67;102254.78;7348614;19;20486;-57
2023/05/28 09:42:24;;;;;;;;;;;;;;;21.49;38.54;102247.91;7342329;19;20988;-56
2023/05/28 09:44:50;;;;;;;;;;;;;;;21.48;39.19;102216.97;7344844;19;19930;-56
2023/05/28 09:47:16;;;;;;;;;;;;;;;21.85;38.57;102253.41;7344112;19;19918;-57
2023/05/28 09:49:42;;;;;;;;;;;;;;;22.00;38.63;102244.72;7349061;19;19918;-57
2023/05/28 09:52:08;;;;;;;;;;;;;;;22.17;38.33;102251.09;7346340;19;20756;-56
2023/05/28 09:54:35;;;;;;;;;;;;;;;22.31;38.45;102240.66;7342702;19;19911;-56
2023/05/28 09:57:02;;;;;;;;;;;;;;;22.42;38.28;102243.69;7347215;19;19919;-57
2023/05/28 09:59:30;;;;;;;;;;;;;;;22.53;37.94;102237.84;7343768;19;19926;-56
2023/05/28 10:02:19;;;;;;;;;;;;;;;22.66;38.07;102241.63;7341674;19;20619;-57
2023/05/28 10:04:46;;;;;;;;;;;;;;;22.92;38.35;102242.19;7248477;19;2004395;-56
2023/05/28 10:07:12;;;;;;;;;;;;;;;23.14;38.57;102240.13;7343035;19;19930;-57
2023/05/28 10:09:39;;;;;;;;;;;;;;;23.33;37.78;102250.72;7348932;19;19937;-56
2023/05/28 10:12:12;;;;;;;;;;;;;;;23.49;38.02;102240.97;7348511;19;20617;-57
2023/05/28 10:14:39;;;;;;;;;;;;;;;23.71;37.68;102230.06;7343617;19;20002;-56
2023/05/28 10:17:05;;;;;;;;;;;;;;;23.99;38.17;102240.09;7349472;19;19953;-57
2023/05/28 10:19:30;;;;;;;;;;;;;;;24.25;37.81;102238.66;7345899;19;19922;-57
2023/05/28 10:21:56;;;;;;;;;;;;;;;24.46;37.57;102247.31;7347673;19;19914;-56
2023/05/28 10:24:22;;;;;;;;;;;;;;;24.70;37.11;102247.72;7345466;19;19930;-57
2023/05/28 10:26:47;;;;;;;;;;;;;;;24.96;37.16;102243.53;7347300;19;19940;-57
2023/05/28 10:29:12;;;;;;;;;;;;;;;25.25;37.31;102238.31;7344238;19;20529;-56
2023/05/28 10:31:38;;;;;;;;;;;;;;;25.55;37.72;102252.50;7345211;19;19930;-57
2023/05/28 10:34:13;;;;;;;;;;;;;;;25.86;36.50;102242.59;7336471;19;20012;-57
2023/05/28 10:36:49;;;;;;;;;;;;;;;26.13;36.77;102234.63;7342337;19;20173;-57
2023/05/28 10:39:14;;;;;;;;;;;;;;;26.42;36.51;102232.78;7345275;19;20909;-56
2023/05/28 10:41:39;;;;;;;;;;;;;;;26.71;36.65;102238.00;7345271;19;19922;-57
2023/05/28 10:44:05;;;;;;;;;;;;;;;27.02;36.26;102240.38;7340727;19;20062;-57
2023/05/28 10:46:40;;;;;;;;;;;;;;;27.31;36.05;102233.03;7343961;19;19919;-57
2023/05/28 10:49:08;;;;;;;;;;;;;;;27.59;36.26;102240.03;7340727;19;19929;-57
2023/05/28 10:51:52;;;;;;;;;;;;;;;27.79;35.63;102232.41;7341584;19;19958;-57
2023/05/28 10:54:21;;;;;;;;;;;;;;;27.95;35.19;102227.66;7344220;19;20731;-56
2023/05/28 10:57:05;;;;;;;;;;;;;;;28.14;35.49;102228.06;7349221;19;19930;-57
2023/05/28 10:59:38;;;;;;;;;;;;;;;28.42;35.14;102226.03;7341089;19;19927;-57
2023/05/28 11:02:05;;;;;;;;;;;;;;;28.72;35.62;102213.97;7344174;19;19923;-57
2023/05/28 11:04:36;;;;;;;;;;;;;;;29.03;34.68;102218.75;7345447;19;19934;-57
2023/05/28 11:07:02;;;;;;;;;;;;;;;29.38;34.60;102215.16;7345865;19;19925;-57
2023/05/28 11:09:27;;;;;;;;;;;;;;;29.77;34.91;102221.09;7346126;19;20621;-57
2023/05/28 11:11:56;;;;;;;;;;;;;;;30.12;34.59;102208.34;7337294;19;21008;-56
2023/05/28 11:14:22;;;;;;;;;;;;;;;30.49;33.73;102208.84;7346768;19;19929;-57
2023/05/28 11:16:47;;;;;;;;;;;;;;;30.88;34.08;102211.06;7332584;19;19911;-57
2023/05/28 11:19:12;;;;;;;;;;;;;;;31.24;33.43;102213.28;7339455;19;19974;-57
2023/05/28 11:21:51;;;;;;;;;;;;;;;31.57;33.67;102211.34;7341669;19;19923;-57
2023/05/28 11:24:16;;;;;;;;;;;;;;;31.89;33.99;102215.78;7342255;19;20375;-57
2023/05/28 11:26:41;;;;;;;;;;;;;;;32.17;32.70;102214.97;7346119;19;19994;-57
2023/05/28 11:29:07;;;;;;;;;;;;;;;32.43;32.29;102214.47;7345591;19;19930;-56
2023/05/28 11:31:41;;;;;;;;;;;;;;;32.63;31.75;102216.19;7341201;19;19947;-57
2023/05/28 11:34:10;;;;;;;;;;;;;;;32.80;31.34;102212.78;7344806;19;19914;-56
2023/05/28 11:36:39;;;;;;;;;;;;;;;32.94;31.06;102213.34;7340577;19;20294;-57
2023/05/28 11:39:04;;;;;;;;;;;;;;;33.05;30.75;102216.78;7345559;19;20047;-56
2023/05/28 11:41:30;;;;;;;;;;;;;;;33.14;30.55;102217.75;7347559;19;19990;-56
2023/05/28 11:43:55;;;;;;;;;;;;;;;33.25;30.77;102216.72;7341672;19;20541;-57
2023/05/28 11:46:24;;;;;;;;;;;;;;;33.33;29.79;102210.56;7343169;19;19923;-56
2023/05/28 11:48:50;;;;;;;;;;;;;;;33.10;29.64;102167.63;7344911;19;19929;-57
2023/05/28 11:51:18;;;;;;;;;;;;;;;33.36;29.89;102208.44;7346103;19;20301;-57
2023/05/28 11:53:44;;;;;;;;;;;;;;;33.42;30.23;102223.28;7340322;19;20034;-57
2023/05/28 11:56:10;;;;;;;;;;;;;;;33.55;30.55;102210.22;7339187;19;19927;-57
2023/05/28 11:58:41;;;;;;;;;;;;;;;33.73;30.60;102194.06;7342840;19;19940;-57
2023/05/28 12:01:06;;;;;;;;;;;;;;;33.88;29.54;102208.81;7338365;19;19934;-56
2023/05/28 12:03:32;;;;;;;;;;;;;;;34.01;29.35;102206.63;7338534;19;19914;-57
2023/05/28 12:05:57;;;;;;;;;;;;;;;34.10;28.62;102191.28;7344513;19;20021;-57
2023/05/28 12:08:22;;;;;;;;;;;;;;;34.20;29.20;102159.53;7344630;19;19943;-57
2023/05/28 12:10:47;;;;;;;;;;;;;;;34.68;29.04;102206.31;7342410;19;19923;-57
2023/05/28 12:13:13;;;;;;;;;;;;;;;34.99;29.87;102204.03;7346629;19;19918;-58
2023/05/28 12:15:38;;;;;;;;;;;;;;;35.29;28.98;102206.28;7329989;19;19931;-57
2023/05/28 12:18:04;;;;;;;;;;;;;;;35.56;28.12;102201.69;7343089;19;19923;-57
2023/05/28 12:20:31;;;;;;;;;;;;;;;35.78;28.01;102195.66;7343184;19;19935;-57
2023/05/28 12:23:19;;;;;;;;;;;;;;;35.98;27.84;102200.84;7343183;19;19921;-57
2023/05/28 12:25:46;;;;;;;;;;;;;;;36.15;27.76;102193.59;7340336;19;20688;-57
2023/05/28 12:28:12;;;;;;;;;;;;;;;36.26;27.91;102188.69;7338413;19;19938;-59
2023/05/28 12:30:38;;;;;;;;;;;;;;;36.33;27.04;102195.13;7316005;19;20442;-60